Jalma Topic — A8IQ6 — position and weather

sailwx.info

Track history (hours):
 
Tides and Currents Weather Stations Pressure Air Temp Water Temp Dewpoint Dewpoint Depression Visibility Wind Speed Wind Dir Waves Ship Positions

Jalma Topic

Last reported at 2017-Jan-12 17:26 UTC. Time now 2017-Jan-18 20:12 UTC.
Position S 30°16' E 030°57'.

Length 183 m; draft 6 m.

Type: Cargo ship. MMSI: 636012871.

Date/timePositionNaut miles runAvg speedWind from/ knotsBaromVisibWave heightAir tempDewpointWater temp
2017-Jan-12 17:26S 30°16' E 030°57'1112.2
2017-Jan-12 16:33S 30°06' E 031°03'1111.4
2017-Jan-12 15:33S 29°56' E 031°07'6 5.8
2017-Jan-12 14:33S 29°52' E 031°02'0 0.2
2017-Jan-12 13:32S 29°52' E 031°02'0 0.0
2017-Jan-12 12:32S 29°52' E 031°02'0 0.0
2017-Jan-12 11:32S 29°52' E 031°02'0 0.0
2017-Jan-12 10:32S 29°52' E 031°02'0 0.0
2017-Jan-12 09:32S 29°52' E 031°02'0 0.0
2017-Jan-12 08:32S 29°52' E 031°02'0 0.0
2017-Jan-12 07:32S 29°52' E 031°02'0 0.0
2017-Jan-12 06:32S 29°52' E 031°02'0 0.0
2017-Jan-12 05:29S 29°52' E 031°02'0 0.0
2017-Jan-12 04:32S 29°52' E 031°02'0 0.0
2017-Jan-12 03:32S 29°52' E 031°02'0 0.0
2017-Jan-12 02:32S 29°52' E 031°02'0 0.0
2017-Jan-12 01:32S 29°52' E 031°02'0 0.0
2017-Jan-12 00:32S 29°52' E 031°02'0 0.0
2017-Jan-11 23:32S 29°52' E 031°02'0 0.0
2017-Jan-11 22:32S 29°52' E 031°02'0 0.0
2017-Jan-11 21:32S 29°52' E 031°02'0 0.0
2017-Jan-11 20:32S 29°52' E 031°02'1 1.4
2017-Jan-11 19:33S 29°52' E 031°04'5 5.2
2017-Jan-11 18:33S 29°48' E 031°08'6 6.3
2017-Jan-11 17:33S 29°43' E 031°12'0 0.0
2017-Jan-11 16:32S 29°43' E 031°12'0 0.0
2017-Jan-11 15:32S 29°43' E 031°12'0 0.0
2017-Jan-11 14:32S 29°43' E 031°12'0 0.0
2017-Jan-11 13:32S 29°43' E 031°12'0 0.1
2017-Jan-11 12:32S 29°43' E 031°12'0 0.0
2017-Jan-11 11:32S 29°43' E 031°12'0 0.0
2017-Jan-11 10:32S 29°43' E 031°12'0 0.0
2017-Jan-11 09:32S 29°43' E 031°12'0 0.0
2017-Jan-11 08:32S 29°43' E 031°12'0 0.0
2017-Jan-11 07:32S 29°43' E 031°12'0 0.0
2017-Jan-11 06:32S 29°43' E 031°12'0 0.0
2017-Jan-11 05:32S 29°43' E 031°12'0 0.0
2017-Jan-11 04:32S 29°43' E 031°12'0 0.0
2017-Jan-11 03:32S 29°43' E 031°12'0 0.0
2017-Jan-11 02:32S 29°43' E 031°12'0 0.0
2017-Jan-11 01:32S 29°43' E 031°12'0 0.0
2017-Jan-11 00:32S 29°43' E 031°12'0 0.1
2017-Jan-10 23:32S 29°43' E 031°12'0 0.0
2017-Jan-10 22:32S 29°43' E 031°12'0 0.0
2017-Jan-10 21:32S 29°43' E 031°12'0 0.0
2017-Jan-10 20:32S 29°43' E 031°12'0 0.0
2017-Jan-10 19:29S 29°43' E 031°12'0 0.0
2017-Jan-10 18:32S 29°43' E 031°12'0 0.0
2017-Jan-10 17:32S 29°43' E 031°12'0 0.0
2017-Jan-10 16:32S 29°43' E 031°12'0 0.0
2017-Jan-10 15:32S 29°43' E 031°12'0 0.1
2017-Jan-10 14:32S 29°43' E 031°12'0 0.0
2017-Jan-10 13:32S 29°43' E 031°12'0 0.1
2017-Jan-10 12:32S 29°43' E 031°12'0 0.0
2017-Jan-10 11:32S 29°43' E 031°12'0 0.0
2017-Jan-10 10:32S 29°43' E 031°12'1 1.0
2017-Jan-10 09:33S 29°44' E 031°13'3 2.9
2017-Jan-10 08:33S 29°45' E 031°16'9 8.8
2017-Jan-10 07:33S 29°43' E 031°25'1111.0
2017-Jan-10 06:33S 29°40' E 031°38'  
Track history (hours):
 
Tides and Currents Weather Stations Pressure Air Temp Water Temp Dewpoint Dewpoint Depression Visibility Wind Speed Wind Dir Waves Ship Positions

Jalma Topic

Last reported at 2017-Jan-12 17:26 UTC. Time now 2017-Jan-18 20:12 UTC.
Position S 30°16' E 030°57'.

Length 183 m; draft 6 m.

Type: Cargo ship. MMSI: 636012871.

Date/timePositionNaut miles runAvg speedWind from/ knotsBaromVisibWave heightAir tempDewpointWater temp
2017-Jan-12 17:26S 30°16' E 030°57'1112.2
2017-Jan-12 16:33S 30°06' E 031°03'1111.4
2017-Jan-12 15:33S 29°56' E 031°07'6 5.8
2017-Jan-12 14:33S 29°52' E 031°02'0 0.2
2017-Jan-12 13:32S 29°52' E 031°02'0 0.0
2017-Jan-12 12:32S 29°52' E 031°02'0 0.0
2017-Jan-12 11:32S 29°52' E 031°02'0 0.0
2017-Jan-12 10:32S 29°52' E 031°02'0 0.0
2017-Jan-12 09:32S 29°52' E 031°02'0 0.0
2017-Jan-12 08:32S 29°52' E 031°02'0 0.0
2017-Jan-12 07:32S 29°52' E 031°02'0 0.0
2017-Jan-12 06:32S 29°52' E 031°02'0 0.0
2017-Jan-12 05:29S 29°52' E 031°02'0 0.0
2017-Jan-12 04:32S 29°52' E 031°02'0 0.0
2017-Jan-12 03:32S 29°52' E 031°02'0 0.0
2017-Jan-12 02:32S 29°52' E 031°02'0 0.0
2017-Jan-12 01:32S 29°52' E 031°02'0 0.0
2017-Jan-12 00:32S 29°52' E 031°02'0 0.0
2017-Jan-11 23:32S 29°52' E 031°02'0 0.0
2017-Jan-11 22:32S 29°52' E 031°02'0 0.0
2017-Jan-11 21:32S 29°52' E 031°02'0 0.0
2017-Jan-11 20:32S 29°52' E 031°02'1 1.4
2017-Jan-11 19:33S 29°52' E 031°04'5 5.2
2017-Jan-11 18:33S 29°48' E 031°08'6 6.3
2017-Jan-11 17:33S 29°43' E 031°12'0 0.0
2017-Jan-11 16:32S 29°43' E 031°12'0 0.0
2017-Jan-11 15:32S 29°43' E 031°12'0 0.0
2017-Jan-11 14:32S 29°43' E 031°12'0 0.0
2017-Jan-11 13:32S 29°43' E 031°12'0 0.1
2017-Jan-11 12:32S 29°43' E 031°12'0 0.0
2017-Jan-11 11:32S 29°43' E 031°12'0 0.0
2017-Jan-11 10:32S 29°43' E 031°12'0 0.0
2017-Jan-11 09:32S 29°43' E 031°12'0 0.0
2017-Jan-11 08:32S 29°43' E 031°12'0 0.0
2017-Jan-11 07:32S 29°43' E 031°12'0 0.0
2017-Jan-11 06:32S 29°43' E 031°12'0 0.0
2017-Jan-11 05:32S 29°43' E 031°12'0 0.0
2017-Jan-11 04:32S 29°43' E 031°12'0 0.0
2017-Jan-11 03:32S 29°43' E 031°12'0 0.0
2017-Jan-11 02:32S 29°43' E 031°12'0 0.0
2017-Jan-11 01:32S 29°43' E 031°12'0 0.0
2017-Jan-11 00:32S 29°43' E 031°12'0 0.1
2017-Jan-10 23:32S 29°43' E 031°12'0 0.0
2017-Jan-10 22:32S 29°43' E 031°12'0 0.0
2017-Jan-10 21:32S 29°43' E 031°12'0 0.0
2017-Jan-10 20:32S 29°43' E 031°12'0 0.0
2017-Jan-10 19:29S 29°43' E 031°12'0 0.0
2017-Jan-10 18:32S 29°43' E 031°12'0 0.0
2017-Jan-10 17:32S 29°43' E 031°12'0 0.0
2017-Jan-10 16:32S 29°43' E 031°12'0 0.0
2017-Jan-10 15:32S 29°43' E 031°12'0 0.1
2017-Jan-10 14:32S 29°43' E 031°12'0 0.0
2017-Jan-10 13:32S 29°43' E 031°12'0 0.1
2017-Jan-10 12:32S 29°43' E 031°12'0 0.0
2017-Jan-10 11:32S 29°43' E 031°12'0 0.0
2017-Jan-10 10:32S 29°43' E 031°12'1 1.0
2017-Jan-10 09:33S 29°44' E 031°13'3 2.9
2017-Jan-10 08:33S 29°45' E 031°16'9 8.8
2017-Jan-10 07:33S 29°43' E 031°25'1111.0
2017-Jan-10 06:33S 29°40' E 031°38'  

Dump ship's entire track history